createdAt,value
2019-03-24T00:09:52.865Z,17.63
2019-03-24T00:12:54.279Z,19.33
2019-03-24T00:50:46.751Z,21.27
2019-03-24T01:05:25.487Z,32.37
2019-03-24T01:11:03.387Z,23.67
2019-03-24T01:14:04.270Z,25.57
2019-03-24T01:22:51.142Z,31.33
2019-03-24T01:29:16.975Z,20.77
2019-03-24T01:35:36.724Z,25.17
2019-03-24T01:53:35.058Z,24.20
2019-03-24T02:01:53.104Z,24.70
2019-03-24T02:04:34.964Z,25.00
2019-03-24T02:07:26.586Z,23.87
2019-03-24T02:10:09.405Z,20.90
2019-03-24T02:16:25.615Z,22.53
2019-03-24T02:19:08.097Z,20.33
2019-03-24T02:25:34.992Z,24.83
2019-03-24T02:33:52.183Z,20.07
2019-03-24T02:56:53.267Z,20.60
2019-03-24T03:14:58.293Z,23.97
2019-03-24T03:27:21.299Z,27.77
2019-03-24T03:30:12.004Z,28.97
2019-03-24T03:33:19.310Z,34.60
2019-03-24T03:39:29.099Z,27.33
2019-03-24T03:51:40.494Z,18.23
2019-03-24T03:54:25.088Z,24.23
2019-03-24T03:57:31.523Z,32.00
2019-03-24T04:00:13.895Z,23.07
2019-03-24T04:02:58.744Z,26.10
2019-03-24T04:08:56.391Z,23.30
2019-03-24T04:11:38.687Z,21.87
2019-03-24T04:14:27.619Z,24.40
2019-03-24T04:26:20.159Z,28.27
2019-03-24T04:52:02.889Z,27.40
2019-03-24T04:54:53.592Z,26.63
2019-03-24T04:57:59.787Z,32.97
2019-03-24T05:09:51.115Z,27.53
2019-03-24T05:15:49.655Z,24.47
2019-03-24T05:24:48.879Z,26.27
2019-03-24T05:35:45.898Z,26.40
2019-03-24T05:41:29.053Z,25.03
2019-03-24T05:49:27.865Z,24.07
2019-03-24T05:52:10.031Z,31.23
2019-03-24T05:58:13.119Z,22.13
2019-03-24T06:00:55.222Z,24.30
2019-03-24T06:03:37.819Z,26.17
2019-03-24T06:06:19.826Z,25.37
2019-03-24T06:09:02.370Z,25.20
2019-03-24T06:11:51.606Z,24.70
2019-03-24T06:14:34.110Z,29.10
2019-03-24T06:20:27.307Z,24.13
2019-03-24T06:26:30.003Z,28.53
2019-03-24T06:29:01.099Z,25.70
2019-03-24T06:34:53.091Z,27.00
2019-03-24T06:37:54.743Z,21.73
2019-03-24T06:40:43.380Z,26.50
2019-03-24T06:43:25.179Z,35.17
2019-03-24T06:46:07.823Z,24.27
2019-03-24T06:48:49.683Z,33.67
2019-03-24T06:51:32.347Z,22.67
2019-03-24T06:54:03.356Z,21.50
2019-03-24T07:02:49.632Z,26.90
2019-03-24T07:05:31.403Z,35.67
2019-03-24T07:08:13.616Z,30.43
2019-03-24T07:10:55.991Z,28.27
2019-03-24T07:13:37.795Z,25.47
2019-03-24T07:16:20.389Z,27.67
2019-03-24T07:19:02.158Z,30.47
2019-03-24T07:21:44.163Z,29.17
2019-03-24T07:24:26.686Z,30.23
2019-03-24T07:27:09.163Z,31.97
2019-03-24T07:29:51.531Z,23.43
2019-03-24T07:32:33.935Z,20.23
2019-03-24T07:35:18.228Z,26.77
2019-03-24T07:37:59.727Z,23.57
2019-03-24T07:40:41.991Z,37.47
2019-03-24T07:43:24.171Z,29.00
2019-03-24T07:46:06.614Z,32.30
2019-03-24T07:48:49.103Z,27.53
2019-03-24T07:51:31.103Z,26.37
2019-03-24T07:54:02.061Z,26.67
2019-03-24T07:56:51.888Z,26.23
2019-03-24T07:59:34.136Z,22.37
2019-03-24T08:02:16.139Z,34.23
2019-03-24T08:04:58.254Z,29.70
2019-03-24T08:07:44.926Z,21.60
2019-03-24T08:10:29.066Z,24.97
2019-03-24T08:13:11.142Z,27.50
2019-03-24T08:15:53.071Z,21.67
2019-03-24T08:18:35.468Z,32.77
2019-03-24T08:24:48.019Z,21.80
2019-03-24T08:27:49.089Z,23.03
2019-03-24T08:30:50.207Z,26.50
2019-03-24T08:33:32.621Z,22.50
2019-03-24T08:36:03.777Z,27.40
2019-03-24T08:38:53.604Z,29.47
2019-03-24T08:41:35.416Z,26.77
2019-03-24T08:47:00.563Z,24.23
2019-03-24T08:53:08.503Z,18.20
2019-03-24T08:59:04.038Z,18.80
2019-03-24T09:01:45.867Z,21.00
2019-03-24T09:04:27.958Z,19.83
2019-03-24T09:10:59.292Z,21.27
2019-03-24T09:14:00.933Z,20.93
2019-03-24T09:16:42.622Z,20.73
2019-03-24T09:19:25.362Z,20.27
2019-03-24T09:22:07.599Z,18.00
2019-03-24T09:27:29.760Z,17.00
2019-03-24T09:32:56.548Z,14.30
2019-03-24T09:35:38.464Z,18.00
2019-03-24T09:38:20.503Z,20.53
2019-03-24T09:41:02.288Z,17.70
2019-03-24T09:47:32.663Z,16.37
2019-03-24T09:50:33.344Z,20.37
2019-03-24T10:02:37.680Z,14.33
2019-03-24T10:05:20.016Z,21.17
2019-03-24T10:08:02.091Z,16.33
2019-03-24T10:10:44.845Z,16.70
2019-03-24T10:13:26.899Z,20.13
2019-03-24T10:16:09.274Z,17.57
2019-03-24T10:18:51.901Z,15.23
2019-03-24T10:21:33.891Z,18.77
2019-03-24T10:24:15.650Z,13.93
2019-03-24T10:30:09.910Z,13.43
2019-03-24T10:32:52.295Z,16.17
2019-03-24T10:35:34.827Z,11.83
2019-03-24T10:38:16.820Z,12.47
2019-03-24T10:40:59.171Z,14.80
2019-03-24T10:43:41.215Z,16.60
2019-03-24T10:46:23.664Z,15.53
2019-03-24T10:49:06.271Z,14.30
2019-03-24T10:51:48.031Z,12.77
2019-03-24T10:54:30.227Z,9.27
2019-03-24T11:00:22.631Z,12.63
2019-03-24T11:03:05.039Z,13.07
2019-03-24T11:06:12.351Z,11.93
2019-03-24T11:09:04.442Z,12.43
2019-03-24T11:11:46.235Z,13.33
2019-03-24T11:14:28.999Z,14.30
2019-03-24T11:24:23.850Z,12.93
2019-03-24T11:27:15.386Z,12.03
2019-03-24T11:33:26.025Z,11.03
2019-03-24T11:36:27.631Z,8.80
2019-03-24T11:46:05.083Z,10.57
2019-03-24T11:59:26.951Z,6.60
2019-03-24T12:09:04.806Z,10.83
2019-03-24T12:11:54.651Z,9.83
2019-03-24T12:15:02.243Z,8.03
2019-03-24T12:24:49.443Z,7.67
2019-03-24T12:27:50.203Z,8.03
2019-03-24T12:31:10.652Z,6.90
2019-03-24T12:33:54.143Z,9.70
2019-03-24T12:36:44.803Z,9.43
2019-03-24T12:39:45.999Z,10.77
2019-03-24T12:42:46.927Z,6.77
2019-03-24T12:48:59.022Z,8.40
2019-03-24T12:51:47.951Z,8.83
2019-03-24T12:54:30.115Z,7.77
2019-03-24T13:00:40.381Z,6.57
2019-03-24T13:03:23.651Z,8.35
2019-03-24T13:09:52.887Z,5.97
2019-03-24T13:16:02.827Z,6.27
2019-03-24T13:22:10.047Z,6.13
2019-03-24T13:24:52.431Z,5.07
2019-03-24T13:30:38.839Z,6.73
2019-03-24T13:33:40.043Z,7.17
2019-03-24T13:36:42.515Z,8.30
2019-03-24T13:42:37.746Z,5.93
2019-03-24T13:45:27.207Z,4.50
2019-03-24T13:48:09.024Z,3.83
2019-03-24T13:54:15.367Z,4.50
2019-03-24T13:57:22.691Z,3.27
2019-03-24T14:00:30.656Z,5.00
2019-03-24T14:06:52.647Z,3.90
2019-03-24T14:09:54.035Z,5.77
2019-03-24T14:12:45.107Z,5.03
2019-03-24T14:19:21.342Z,3.50
2019-03-24T14:22:03.117Z,7.60
2019-03-24T14:25:11.442Z,6.17
2019-03-24T14:27:53.727Z,5.20
2019-03-24T14:30:57.555Z,5.70
2019-03-24T14:37:04.585Z,7.27
2019-03-24T14:39:36.812Z,4.97
2019-03-24T14:42:07.854Z,7.73
2019-03-24T14:44:38.935Z,7.40
2019-03-24T14:47:10.023Z,7.67
2019-03-24T14:49:42.098Z,6.10
2019-03-24T14:52:13.138Z,3.00
2019-03-24T14:54:44.182Z,4.83
2019-03-24T14:57:15.655Z,7.23
2019-03-24T14:59:46.703Z,7.23
2019-03-24T15:02:17.799Z,5.13
2019-03-24T15:04:48.890Z,4.50
2019-03-24T15:07:19.900Z,6.03
2019-03-24T15:09:51.338Z,9.13
2019-03-24T15:12:22.393Z,6.47
2019-03-24T15:14:53.412Z,7.73
2019-03-24T15:17:24.791Z,6.37
2019-03-24T15:19:56.310Z,7.05
2019-03-24T15:22:27.330Z,4.60
2019-03-24T15:24:58.447Z,4.97
2019-03-24T15:27:29.477Z,5.27
2019-03-24T15:30:00.535Z,6.70
2019-03-24T15:32:31.602Z,4.30
2019-03-24T15:35:02.714Z,10.83
2019-03-24T15:37:33.728Z,5.43
2019-03-24T15:40:05.051Z,5.87
2019-03-24T15:42:36.130Z,6.40
2019-03-24T15:45:07.427Z,6.60
2019-03-24T15:47:38.590Z,6.57
2019-03-24T15:50:10.467Z,10.33
2019-03-24T15:52:43.111Z,5.90
2019-03-24T15:55:14.207Z,7.90
2019-03-24T15:57:45.257Z,8.53
2019-03-24T16:00:19.142Z,9.33
2019-03-24T16:02:50.746Z,10.13
2019-03-24T16:05:22.306Z,8.10
2019-03-24T16:07:53.358Z,5.43
2019-03-24T16:10:34.745Z,6.60
2019-03-24T16:12:57.176Z,7.70
2019-03-24T16:15:28.294Z,9.70
2019-03-24T16:17:59.894Z,6.70
2019-03-24T16:20:30.938Z,7.67
2019-03-24T16:23:01.966Z,5.23
2019-03-24T16:25:33.032Z,5.80
2019-03-24T16:28:04.634Z,8.10
2019-03-24T16:30:35.691Z,12.93
2019-03-24T16:33:06.958Z,9.90
2019-03-24T16:35:38.052Z,9.40
2019-03-24T16:38:09.122Z,11.43
2019-03-24T16:40:41.453Z,12.87
2019-03-24T16:43:12.726Z,9.80
2019-03-24T16:45:47.129Z,12.80
2019-03-24T16:48:17.382Z,6.43
2019-03-24T16:50:48.463Z,5.90
2019-03-24T16:53:19.887Z,6.97
2019-03-24T16:55:50.921Z,7.50
2019-03-24T16:58:22.003Z,8.83
2019-03-24T17:00:53.066Z,11.00
2019-03-24T17:03:24.166Z,6.40
2019-03-24T17:05:55.344Z,8.93
2019-03-24T17:08:26.744Z,8.23
2019-03-24T17:10:57.812Z,8.90
2019-03-24T17:13:29.208Z,7.63
2019-03-24T17:16:00.441Z,6.67
2019-03-24T17:18:32.504Z,6.73
2019-03-24T17:21:03.562Z,7.13
2019-03-24T17:23:34.619Z,4.67
2019-03-24T17:26:05.774Z,5.77
2019-03-24T17:28:36.847Z,7.43
2019-03-24T17:31:07.979Z,5.47
2019-03-24T17:33:39.075Z,12.00
2019-03-24T17:36:10.155Z,14.17
2019-03-24T17:38:41.247Z,6.83
2019-03-24T17:41:13.808Z,10.17
2019-03-24T17:43:44.903Z,7.07
2019-03-24T17:46:16.144Z,7.00
2019-03-24T17:48:47.246Z,8.37
2019-03-24T17:51:18.345Z,5.63
2019-03-24T17:53:49.415Z,7.63
2019-03-24T17:56:20.888Z,7.33
2019-03-24T17:58:53.374Z,15.40
2019-03-24T18:01:29.194Z,10.20
2019-03-24T18:04:00.714Z,6.23
2019-03-24T18:06:31.741Z,7.93
2019-03-24T18:09:03.608Z,5.53
2019-03-24T18:11:34.718Z,5.30
2019-03-24T18:14:05.812Z,8.00
2019-03-24T18:16:37.000Z,12.50
2019-03-24T18:19:08.223Z,5.23
2019-03-24T18:21:39.328Z,5.53
2019-03-24T18:24:10.343Z,7.40
2019-03-24T18:26:43.212Z,5.67
2019-03-24T18:29:17.130Z,8.00
2019-03-24T18:31:48.630Z,9.33
2019-03-24T18:34:19.729Z,7.10
2019-03-24T18:36:50.862Z,11.60
2019-03-24T18:39:22.027Z,8.33
2019-03-24T18:41:53.863Z,7.30
2019-03-24T18:44:24.911Z,10.07
2019-03-24T18:46:56.039Z,7.33
2019-03-24T18:49:27.534Z,8.80
2019-03-24T18:51:58.604Z,9.83
2019-03-24T18:54:29.689Z,7.90
2019-03-24T18:57:01.014Z,6.43
2019-03-24T18:59:32.079Z,10.03
2019-03-24T19:02:03.131Z,7.33
2019-03-24T19:04:34.173Z,8.00
2019-03-24T19:07:05.289Z,9.37
2019-03-24T19:09:36.643Z,11.10
2019-03-24T19:12:07.710Z,13.77
2019-03-24T19:14:40.925Z,11.47
2019-03-24T19:17:12.018Z,10.37
2019-03-24T19:19:43.490Z,11.83
2019-03-24T19:22:14.618Z,9.90
2019-03-24T19:24:48.050Z,11.20
2019-03-24T19:27:19.101Z,11.60
2019-03-24T19:29:50.167Z,12.77
2019-03-24T19:32:21.219Z,9.43
2019-03-24T19:34:52.782Z,12.63
2019-03-24T19:37:24.416Z,9.90
2019-03-24T19:39:55.548Z,8.90
2019-03-24T19:42:26.570Z,12.23
2019-03-24T19:44:59.400Z,8.77
2019-03-24T19:47:30.502Z,9.53
2019-03-24T19:50:05.296Z,9.20
2019-03-24T19:52:44.624Z,8.73
2019-03-24T19:55:14.686Z,8.80
2019-03-24T19:57:49.809Z,9.13
2019-03-24T20:00:26.779Z,7.80
2019-03-24T20:03:01.169Z,11.67
2019-03-24T20:05:36.009Z,9.33
2019-03-24T20:08:14.822Z,9.37
2019-03-24T20:10:50.547Z,11.03
2019-03-24T20:13:26.411Z,7.97
2019-03-24T20:16:05.368Z,14.30
2019-03-24T20:18:42.518Z,11.17
2019-03-24T20:21:18.615Z,10.27
2019-03-24T20:23:53.544Z,6.27
2019-03-24T20:26:29.418Z,14.23
2019-03-24T20:29:04.610Z,8.50
2019-03-24T20:31:41.288Z,11.77
2019-03-24T20:34:17.156Z,13.57
2019-03-24T20:36:54.705Z,9.23
2019-03-24T20:39:30.004Z,9.17
2019-03-24T20:42:05.574Z,7.20
2019-03-24T20:44:46.735Z,11.87
2019-03-24T20:47:23.454Z,8.30
2019-03-24T20:50:00.840Z,9.70
2019-03-24T20:52:36.379Z,11.77
2019-03-24T20:55:13.905Z,14.93
2019-03-24T20:57:48.556Z,17.27
2019-03-24T21:00:36.360Z,12.37
2019-03-24T21:03:12.882Z,8.37
2019-03-24T21:05:48.615Z,8.47
2019-03-24T21:08:25.610Z,11.33
2019-03-24T21:11:03.386Z,9.08
2019-03-24T21:13:39.899Z,8.33
2019-03-24T21:16:15.426Z,11.27
2019-03-24T21:18:52.307Z,12.97
2019-03-24T21:21:31.706Z,13.67
2019-03-24T21:24:08.773Z,10.20
2019-03-24T21:26:43.840Z,8.03
2019-03-24T21:29:22.474Z,10.33
2019-03-24T21:32:01.094Z,9.67
2019-03-24T21:34:36.733Z,6.63
2019-03-24T21:37:13.574Z,9.10
2019-03-24T21:39:50.494Z,10.80
2019-03-24T21:42:28.054Z,10.70
2019-03-24T21:45:05.228Z,6.50
2019-03-24T21:47:43.291Z,12.57
2019-03-24T21:50:21.790Z,14.17
2019-03-24T21:52:57.810Z,12.43
2019-03-24T21:55:35.491Z,8.60
2019-03-24T21:58:14.302Z,10.03
2019-03-24T22:00:50.166Z,12.77
2019-03-24T22:03:24.787Z,8.43
2019-03-24T22:05:59.670Z,7.23
2019-03-24T22:08:35.255Z,10.63
2019-03-24T22:11:11.965Z,9.53
2019-03-24T22:13:47.444Z,12.67
2019-03-24T22:16:24.164Z,6.43
2019-03-24T22:18:59.714Z,13.07
2019-03-24T22:21:36.532Z,11.70
2019-03-24T22:24:11.617Z,12.00
2019-03-24T22:26:46.891Z,8.77
2019-03-24T22:29:24.840Z,8.60
2019-03-24T22:32:01.507Z,8.35
2019-03-24T22:34:36.112Z,12.07
2019-03-24T22:37:15.904Z,11.50
2019-03-24T22:39:50.049Z,8.20
2019-03-24T22:42:25.244Z,9.90
2019-03-24T22:45:00.324Z,11.47
2019-03-24T22:47:35.590Z,6.33
2019-03-24T22:50:12.065Z,9.13
2019-03-24T22:52:47.315Z,4.77
2019-03-24T22:55:20.712Z,8.63
2019-03-24T22:57:55.671Z,9.27
2019-03-24T23:00:52.513Z,6.13
2019-03-24T23:03:25.307Z,10.53
2019-03-24T23:05:56.588Z,8.97
2019-03-24T23:08:27.686Z,8.33
2019-03-24T23:10:58.763Z,5.20
2019-03-24T23:13:29.912Z,8.73
2019-03-24T23:16:01.104Z,7.50
2019-03-24T23:18:33.391Z,13.23
2019-03-24T23:21:07.441Z,10.87
2019-03-24T23:23:38.503Z,13.57
2019-03-24T23:26:09.567Z,6.83
2019-03-24T23:28:40.611Z,11.07
2019-03-24T23:31:11.674Z,7.03
2019-03-24T23:33:42.757Z,11.10
2019-03-24T23:36:13.784Z,14.60
2019-03-24T23:38:44.810Z,11.30
2019-03-24T23:41:16.185Z,7.53
2019-03-24T23:43:48.556Z,12.50
2019-03-24T23:46:24.690Z,9.33
2019-03-24T23:48:56.006Z,10.90
2019-03-24T23:51:27.107Z,8.90
2019-03-24T23:53:58.157Z,8.90
2019-03-24T23:56:29.203Z,8.60
2019-03-24T23:59:00.298Z,12.90
